Time;durP1;ratioP1;P1;durP2;ratioP2;P2;SDS_P1;SDS_P2;PMS_P1;PMS_P2;Temp;Humidity;BMP_temperature;BMP_pressure;BME280_temperature;BME280_humidity;BME280_pressure;Samples;Min_cycle;Max_cycle;Signal;HPM_P1;HPM_P2
2023/02/06 00:00:14;;;;;;;27.10;4.95;;;5.80;99.90;;;;;;5071532;28;20170;-81
2023/02/06 00:02:39;;;;;;;34.83;4.22;;;5.80;99.90;;;;;;5072274;28;20200;-79
2023/02/06 00:05:05;;;;;;;40.25;4.55;;;5.70;99.90;;;;;;5071425;28;20170;-85
2023/02/06 00:07:31;;;;;;;29.95;3.78;;;5.90;99.90;;;;;;5072464;28;20174;-84
2023/02/06 00:09:56;;;;;;;27.83;4.70;;;6.10;99.90;;;;;;5071450;28;20170;-83
2023/02/06 00:12:22;;;;;;;48.45;4.93;;;6.10;99.90;;;;;;5072663;28;20220;-79
2023/02/06 00:14:47;;;;;;;31.25;5.90;;;6.20;99.90;;;;;;5072341;28;20178;-80
2023/02/06 00:17:13;;;;;;;46.55;5.07;;;6.10;99.90;;;;;;5070717;28;20217;-85
2023/02/06 00:19:39;;;;;;;25.98;5.63;;;6.40;99.90;;;;;;5072591;28;20561;-84
2023/02/06 00:22:04;;;;;;;44.20;3.63;;;6.40;99.90;;;;;;5072422;28;20229;-83
2023/02/06 00:24:30;;;;;;;25.70;3.60;;;6.10;99.90;;;;;;5075760;28;20177;-83
2023/02/06 00:26:55;;;;;;;32.47;3.38;;;6.00;99.90;;;;;;5075308;28;20194;-85
2023/02/06 00:29:21;;;;;;;39.75;5.63;;;6.00;99.90;;;;;;5077129;28;20182;-79
2023/02/06 00:31:47;;;;;;;24.45;3.83;;;5.80;99.90;;;;;;5093293;28;20574;-80
2023/02/06 00:34:12;;;;;;;44.28;6.20;;;5.90;99.90;;;;;;5077155;28;20174;-84
2023/02/06 00:36:38;;;;;;;49.03;5.10;;;5.90;99.90;;;;;;5070911;28;20167;-79
2023/02/06 00:39:03;;;;;;;37.22;4.78;;;6.10;99.90;;;;;;5071240;28;20261;-83
2023/02/06 00:41:29;;;;;;;26.13;3.30;;;6.10;99.90;;;;;;5071103;28;20771;-81
2023/02/06 00:43:54;;;;;;;40.85;5.22;;;6.10;99.90;;;;;;5071653;28;20171;-85
2023/02/06 00:46:20;;;;;;;34.65;4.30;;;5.80;99.90;;;;;;5072439;28;20201;-80
2023/02/06 00:48:46;;;;;;;29.35;4.32;;;5.70;99.90;;;;;;5072366;28;20227;-83
2023/02/06 00:51:11;;;;;;;37.58;4.60;;;5.70;99.90;;;;;;5073373;28;20244;-80
2023/02/06 00:53:38;;;;;;;29.70;4.78;;;5.60;99.90;;;;;;5072223;28;20237;-80
2023/02/06 00:56:03;;;;;;;31.15;4.18;;;5.70;99.90;;;;;;5072264;28;20176;-84
2023/02/06 00:58:29;;;;;;;29.38;4.07;;;5.60;99.90;;;;;;5072386;28;20249;-83
2023/02/06 01:00:55;;;;;;;20.08;3.92;;;5.40;99.90;;;;;;5072086;28;20203;-80
2023/02/06 01:03:20;;;;;;;19.58;4.88;;;5.30;99.90;;;;;;5070794;28;20159;-80
2023/02/06 01:05:46;;;;;;;35.28;4.65;;;5.10;99.90;;;;;;5071902;28;20179;-79
2023/02/06 01:08:11;;;;;;;26.25;4.68;;;5.00;99.90;;;;;;5071755;28;20167;-80
2023/02/06 01:10:40;;;;;;;38.70;5.82;;;5.00;99.90;;;;;;5070952;28;20190;-80
2023/02/06 01:13:06;;;;;;;40.17;6.15;;;5.00;99.90;;;;;;5070219;28;20210;-80
2023/02/06 01:15:32;;;;;;;35.70;4.95;;;5.30;99.90;;;;;;5071773;28;20513;-84
2023/02/06 01:17:57;;;;;;;28.63;3.83;;;5.30;99.90;;;;;;5071810;28;20163;-80
2023/02/06 01:20:23;;;;;;;23.95;5.80;;;5.20;99.90;;;;;;5070936;28;20182;-80
2023/02/06 01:22:49;;;;;;;33.38;4.32;;;5.40;99.90;;;;;;5071824;28;20187;-79
2023/02/06 01:25:15;;;;;;;26.17;4.88;;;5.40;99.90;;;;;;5070641;28;20166;-80
2023/02/06 01:27:40;;;;;;;33.75;5.25;;;5.80;99.90;;;;;;5070618;28;20668;-84
2023/02/06 01:30:07;;;;;;;33.33;4.85;;;5.70;99.90;;;;;;5074135;28;20178;-79
2023/02/06 01:32:37;;;;;;;38.85;4.30;;;5.60;99.90;;;;;;5073866;28;20203;-84
2023/02/06 01:35:05;;;;;;;26.77;4.43;;;5.70;99.90;;;;;;5075210;28;20167;-84
2023/02/06 01:37:31;;;;;;;39.15;4.78;;;5.60;99.90;;;;;;5075192;28;20162;-84
2023/02/06 01:39:57;;;;;;;25.30;4.18;;;5.70;99.90;;;;;;5075113;28;20563;-80
2023/02/06 01:42:22;;;;;;;51.35;6.20;;;5.60;99.90;;;;;;5073899;28;20236;-82
2023/02/06 01:44:48;;;;;;;29.33;3.88;;;5.30;99.90;;;;;;5073727;28;20159;-79
2023/02/06 01:47:13;;;;;;;58.83;6.20;;;5.40;99.90;;;;;;5075221;28;20217;-81
2023/02/06 01:49:44;;;;;;;26.65;3.63;;;5.30;99.90;;;;;;5074612;28;20496;-79
2023/02/06 01:52:24;;;;;;;49.47;5.20;;;5.50;99.90;;;;;;5073334;28;20238;-79
2023/02/06 01:54:58;;;;;;;39.42;5.65;;;5.60;99.90;;;;;;5074858;28;20169;-79
2023/02/06 01:57:25;;;;;;;32.42;4.22;;;5.80;99.90;;;;;;5073697;28;20224;-82
2023/02/06 02:00:01;;;;;;;25.67;3.70;;;6.00;99.90;;;;;;5073628;28;20216;-79
2023/02/06 02:02:28;;;;;;;42.20;4.28;;;6.00;99.90;;;;;;5073467;28;20241;-80
2023/02/06 02:04:55;;;;;;;34.20;4.18;;;6.10;99.90;;;;;;5074901;28;20522;-79
2023/02/06 02:07:30;;;;;;;26.00;4.15;;;6.00;99.90;;;;;;5074979;28;20223;-79
2023/02/06 02:09:56;;;;;;;35.38;4.97;;;5.90;99.90;;;;;;5074858;28;20170;-80
2023/02/06 02:12:22;;;;;;;37.72;3.90;;;5.80;99.90;;;;;;5074660;28;20551;-79
2023/02/06 02:14:49;;;;;;;41.60;5.43;;;5.80;99.90;;;;;;5074992;28;20181;-80
2023/02/06 02:17:15;;;;;;;40.95;4.97;;;5.70;99.90;;;;;;5073220;28;20253;-80
2023/02/06 02:19:46;;;;;;;39.40;4.50;;;5.80;99.90;;;;;;5073528;28;20316;-83
2023/02/06 02:22:50;;;;;;;27.67;4.50;;;5.90;99.90;;;;;;5074561;28;20714;-83
2023/02/06 02:25:46;;;;;;;18.88;3.85;;;6.10;99.90;;;;;;5074432;28;20158;-80
2023/02/06 02:28:38;;;;;;;33.28;5.25;;;5.90;99.90;;;;;;5074297;28;20535;-84
2023/02/06 02:31:35;;;;;;;25.30;4.35;;;5.90;99.90;;;;;;5073813;28;20186;-80
2023/02/06 02:34:38;;;;;;;41.90;5.20;;;5.90;99.90;;;;;;5072959;28;20265;-84
2023/02/06 02:37:14;;;;;;;35.58;4.35;;;6.10;99.90;;;;;;5072863;28;20601;-84
2023/02/06 02:39:47;;;;;;;28.60;3.88;;;6.30;99.90;;;;;;5073057;28;20201;-80
2023/02/06 02:42:20;;;;;;;28.95;5.32;;;6.20;99.90;;;;;;5073818;28;20187;-84
2023/02/06 02:44:57;;;;;;;42.13;4.25;;;6.10;99.90;;;;;;5072673;28;20170;-80
2023/02/06 02:47:28;;;;;;;27.27;4.35;;;6.20;99.90;;;;;;5072667;28;20657;-79
2023/02/06 02:49:55;;;;;;;25.77;4.35;;;6.00;99.90;;;;;;5072807;28;20167;-80
2023/02/06 02:52:21;;;;;;;25.17;4.72;;;6.00;99.90;;;;;;5073850;28;20213;-80
2023/02/06 02:54:47;;;;;;;23.13;4.78;;;5.90;99.90;;;;;;5073840;28;20175;-80
2023/02/06 02:57:18;;;;;;;34.67;4.13;;;5.70;99.90;;;;;;5073812;28;20158;-80
2023/02/06 02:59:47;;;;;;;39.35;4.80;;;5.70;99.90;;;;;;5073937;28;20186;-80
2023/02/06 03:02:25;;;;;;;29.13;4.15;;;5.90;99.90;;;;;;5073707;28;20265;-84
2023/02/06 03:04:57;;;;;;;40.33;4.82;;;6.10;99.90;;;;;;5073395;28;20173;-80
2023/02/06 03:07:45;;;;;;;32.05;4.18;;;6.30;99.90;;;;;;5073416;28;20171;-80
2023/02/06 03:10:19;;;;;;;27.05;4.63;;;6.00;99.90;;;;;;5073374;28;20170;-83
2023/02/06 03:12:47;;;;;;;53.55;5.78;;;6.00;99.90;;;;;;5073219;28;20574;-83
2023/02/06 03:15:33;;;;;;;40.03;4.90;;;6.10;99.90;;;;;;5072113;28;20172;-84
2023/02/06 03:18:10;;;;;;;34.65;4.55;;;6.00;99.90;;;;;;5073181;28;20166;-85
2023/02/06 03:20:40;;;;;;;29.83;3.65;;;6.10;99.90;;;;;;5073102;28;20173;-79
2023/02/06 03:23:07;;;;;;;34.72;3.72;;;6.10;99.90;;;;;;5073384;28;21022;-84
2023/02/06 03:25:37;;;;;;;35.33;4.28;;;6.10;99.90;;;;;;5073213;28;20190;-84
2023/02/06 03:28:06;;;;;;;23.98;4.75;;;6.10;99.90;;;;;;5073072;28;20186;-80
2023/02/06 03:30:33;;;;;;;14.88;3.30;;;6.10;99.90;;;;;;5071844;28;20167;-84
2023/02/06 03:33:06;;;;;;;18.35;3.28;;;6.10;99.90;;;;;;5073187;28;20210;-85
2023/02/06 03:35:35;;;;;;;29.38;2.80;;;5.90;99.90;;;;;;5072945;28;20914;-80
2023/02/06 03:38:03;;;;;;;32.90;3.83;;;5.90;99.90;;;;;;5072994;28;20633;-84
2023/02/06 03:40:30;;;;;;;24.83;3.72;;;5.80;99.90;;;;;;5073031;28;20520;-84
2023/02/06 03:42:59;;;;;;;21.40;4.30;;;5.70;99.90;;;;;;5073125;28;20650;-85
2023/02/06 03:45:29;;;;;;;22.88;4.50;;;5.40;99.90;;;;;;5072936;28;20166;-80
2023/02/06 03:48:00;;;;;;;26.58;4.75;;;5.30;99.90;;;;;;5073243;28;20160;-85
2023/02/06 03:50:27;;;;;;;32.47;3.55;;;5.30;99.90;;;;;;5072605;28;20219;-85
2023/02/06 03:52:56;;;;;;;22.10;4.60;;;5.40;99.90;;;;;;5070639;28;20262;-80
2023/02/06 03:55:23;;;;;;;29.95;4.35;;;5.30;99.90;;;;;;5071701;28;20166;-80
2023/02/06 03:58:02;;;;;;;23.58;3.85;;;5.20;99.90;;;;;;5072788;28;20261;-79
2023/02/06 04:00:29;;;;;;;26.67;3.92;;;5.30;99.90;;;;;;5072675;28;20219;-81
2023/02/06 04:02:56;;;;;;;27.67;3.33;;;5.40;99.90;;;;;;5071203;28;20547;-80
2023/02/06 04:05:22;;;;;;;18.50;2.95;;;5.50;99.90;;;;;;5072697;28;20169;-80
2023/02/06 04:07:48;;;;;;;31.45;3.20;;;5.30;99.90;;;;;;5071345;28;20178;-80
2023/02/06 04:10:14;;;;;;;19.48;4.00;;;5.10;99.90;;;;;;5071486;28;20158;-85
2023/02/06 04:12:39;;;;;;;19.83;3.22;;;4.90;99.90;;;;;;5072081;28;20230;-79
2023/02/06 04:15:05;;;;;;;17.42;2.67;;;4.90;99.90;;;;;;5071674;28;20245;-80
2023/02/06 04:17:31;;;;;;;27.42;4.00;;;4.80;99.90;;;;;;5072196;28;20166;-84
2023/02/06 04:19:57;;;;;;;25.13;3.63;;;4.60;99.90;;;;;;5071472;28;20173;-80
2023/02/06 04:22:22;;;;;;;17.42;3.90;;;4.50;99.90;;;;;;5073680;28;20191;-84
2023/02/06 04:24:48;;;;;;;32.92;3.78;;;4.40;99.90;;;;;;5078909;28;20245;-81
2023/02/06 04:27:14;;;;;;;14.32;3.22;;;4.40;99.90;;;;;;5081383;28;20201;-83
2023/02/06 04:29:40;;;;;;;18.15;3.58;;;4.40;99.90;;;;;;5080916;28;20166;-79
2023/02/06 04:32:06;;;;;;;31.92;3.15;;;4.30;99.90;;;;;;5079014;28;20221;-85
2023/02/06 04:34:37;;;;;;;22.25;3.67;;;4.60;99.90;;;;;;5077951;28;20222;-78
2023/02/06 04:37:05;;;;;;;23.55;3.58;;;4.50;99.90;;;;;;5084948;28;20173;-84
2023/02/06 04:39:31;;;;;;;22.48;3.28;;;4.50;99.90;;;;;;5083852;28;20646;-85
2023/02/06 04:41:57;;;;;;;27.00;3.92;;;4.20;99.90;;;;;;5077296;28;20189;-84
2023/02/06 04:44:23;;;;;;;13.77;3.95;;;4.30;99.90;;;;;;5089091;28;20170;-80
2023/02/06 04:46:49;;;;;;;23.30;3.55;;;4.30;99.90;;;;;;5085295;28;20182;-80
2023/02/06 04:49:15;;;;;;;16.45;3.65;;;4.30;99.90;;;;;;5077791;28;20162;-84
2023/02/06 04:51:42;;;;;;;26.95;4.47;;;4.30;99.90;;;;;;5078554;28;20221;-80
2023/02/06 04:54:12;;;;;;;31.05;3.47;;;4.20;99.90;;;;;;5075323;28;20167;-80
2023/02/06 04:56:38;;;;;;;17.77;3.35;;;4.30;99.90;;;;;;5078605;28;20185;-79
2023/02/06 04:59:03;;;;;;;28.30;4.72;;;4.20;99.90;;;;;;5080758;28;20162;-80
2023/02/06 05:01:29;;;;;;;21.60;4.40;;;4.30;99.90;;;;;;5071966;28;20190;-80
2023/02/06 05:03:55;;;;;;;22.75;3.65;;;4.20;99.90;;;;;;5073842;28;20166;-79
2023/02/06 05:06:20;;;;;;;27.23;4.07;;;4.20;99.90;;;;;;5075039;28;20173;-81
2023/02/06 05:08:46;;;;;;;19.00;3.42;;;4.20;99.90;;;;;;5075596;28;20166;-80
2023/02/06 05:11:12;;;;;;;24.48;5.03;;;4.30;99.90;;;;;;5074017;28;20231;-80
2023/02/06 05:13:37;;;;;;;33.42;4.78;;;4.30;99.90;;;;;;5075454;28;20170;-81
2023/02/06 05:16:08;;;;;;;30.40;4.75;;;4.40;99.90;;;;;;5075412;28;20163;-84
2023/02/06 05:18:34;;;;;;;33.88;4.25;;;4.60;99.90;;;;;;5075514;28;20182;-80
2023/02/06 05:21:00;;;;;;;17.60;4.18;;;4.50;99.90;;;;;;5075220;28;20698;-80
2023/02/06 05:23:26;;;;;;;41.42;3.95;;;4.50;99.90;;;;;;5075419;28;20174;-81
2023/02/06 05:25:51;;;;;;;25.05;4.85;;;4.60;99.90;;;;;;5075204;28;20576;-79
2023/02/06 05:28:17;;;;;;;31.88;4.18;;;4.80;99.90;;;;;;5074020;28;20190;-80
2023/02/06 05:30:42;;;;;;;45.00;4.18;;;5.00;99.90;;;;;;5074613;28;20182;-82
2023/02/06 05:33:08;;;;;;;40.70;4.63;;;5.00;99.90;;;;;;5074671;28;20198;-80
2023/02/06 05:35:34;;;;;;;32.78;4.53;;;4.90;99.90;;;;;;5073834;28;20324;-80
2023/02/06 05:37:59;;;;;;;45.15;4.18;;;5.00;99.90;;;;;;5075325;28;20194;-83
2023/02/06 05:40:25;;;;;;;35.65;3.53;;;5.10;99.90;;;;;;5074946;28;20162;-80
2023/02/06 05:42:50;;;;;;;32.80;4.20;;;5.10;99.90;;;;;;5074713;28;20171;-79
2023/02/06 05:45:16;;;;;;;38.45;4.65;;;5.10;99.90;;;;;;5075036;28;20163;-85
2023/02/06 05:47:42;;;;;;;32.40;4.05;;;5.20;99.90;;;;;;5073771;28;20174;-80
2023/02/06 05:50:08;;;;;;;32.10;5.10;;;5.20;99.90;;;;;;5074574;28;20555;-81
2023/02/06 05:52:33;;;;;;;41.92;5.38;;;5.10;99.90;;;;;;5074987;28;20268;-84
2023/02/06 05:54:59;;;;;;;40.65;5.57;;;5.10;99.90;;;;;;5074800;28;20183;-80
2023/02/06 05:57:24;;;;;;;33.67;4.25;;;5.20;99.90;;;;;;5073791;28;20233;-83
2023/02/06 05:59:50;;;;;;;36.50;5.55;;;5.20;99.90;;;;;;5075113;28;20159;-79
2023/02/06 06:02:15;;;;;;;45.63;5.38;;;5.40;99.90;;;;;;5073405;28;20240;-83
2023/02/06 06:04:41;;;;;;;34.90;4.30;;;5.20;99.90;;;;;;5072981;28;20172;-81
2023/02/06 06:07:07;;;;;;;43.00;5.13;;;5.20;99.90;;;;;;5073066;28;20635;-81
2023/02/06 06:09:33;;;;;;;28.65;4.00;;;5.20;99.90;;;;;;5074681;28;20630;-84
2023/02/06 06:11:58;;;;;;;26.80;5.35;;;5.30;99.90;;;;;;5073966;28;20288;-80
2023/02/06 06:14:24;;;;;;;41.72;4.82;;;5.50;99.90;;;;;;5072359;28;20623;-80
2023/02/06 06:16:51;;;;;;;38.40;5.18;;;5.60;99.90;;;;;;5073994;28;20174;-82
2023/02/06 06:19:17;;;;;;;29.23;4.82;;;5.60;99.90;;;;;;5074255;28;20251;-80
2023/02/06 06:21:42;;;;;;;35.97;4.20;;;5.50;99.90;;;;;;5072627;28;20651;-79
2023/02/06 06:24:08;;;;;;;39.90;5.30;;;5.40;99.90;;;;;;5072983;28;20227;-80
2023/02/06 06:26:34;;;;;;;30.45;4.53;;;5.50;99.90;;;;;;5072871;28;20182;-80
2023/02/06 06:29:00;;;;;;;30.83;4.53;;;5.60;99.90;;;;;;5074644;28;20163;-80
2023/02/06 06:31:25;;;;;;;26.83;5.07;;;5.40;99.90;;;;;;5073721;28;20589;-80
2023/02/06 06:33:51;;;;;;;34.53;5.53;;;5.20;99.90;;;;;;5072855;28;20180;-80
2023/02/06 06:36:17;;;;;;;41.47;6.22;;;5.30;99.90;;;;;;5073921;28;20253;-84
2023/02/06 06:38:43;;;;;;;47.35;4.88;;;5.40;99.90;;;;;;5072434;28;20669;-82
2023/02/06 06:41:08;;;;;;;42.85;5.30;;;5.20;99.90;;;;;;5073968;28;20216;-79
2023/02/06 06:43:34;;;;;;;34.47;4.95;;;5.10;99.90;;;;;;5073204;28;20166;-80
2023/02/06 06:46:00;;;;;;;43.15;5.35;;;4.90;99.90;;;;;;5072131;28;20186;-81
2023/02/06 06:48:26;;;;;;;33.58;5.18;;;4.80;99.90;;;;;;5073837;28;20313;-80
2023/02/06 06:50:52;;;;;;;20.95;4.97;;;4.80;99.90;;;;;;5072278;28;20560;-80
2023/02/06 06:53:18;;;;;;;51.47;6.75;;;4.80;99.90;;;;;;5073356;28;20206;-79
2023/02/06 06:55:44;;;;;;;61.75;6.50;;;4.80;99.90;;;;;;5072304;28;20687;-79
2023/02/06 06:58:09;;;;;;;19.02;5.43;;;5.00;99.90;;;;;;5072135;28;20174;-79
2023/02/06 07:00:35;;;;;;;49.67;7.07;;;4.70;99.90;;;;;;5073021;28;20163;-79
2023/02/06 07:03:01;;;;;;;45.00;5.85;;;4.80;99.90;;;;;;5071680;28;20656;-79
2023/02/06 07:05:27;;;;;;;37.30;5.93;;;4.70;99.90;;;;;;5073437;28;20179;-80
2023/02/06 07:07:52;;;;;;;36.63;6.57;;;4.70;99.90;;;;;;5072661;28;20177;-80
2023/02/06 07:10:18;;;;;;;34.85;5.93;;;4.90;99.90;;;;;;5072847;28;20618;-82
2023/02/06 07:12:43;;;;;;;27.58;6.45;;;4.90;99.90;;;;;;5073222;28;20796;-79
2023/02/06 07:15:10;;;;;;;20.95;5.53;;;4.80;99.90;;;;;;5072662;28;20627;-80
2023/02/06 07:17:35;;;;;;;35.47;7.28;;;5.10;99.90;;;;;;5071349;28;20177;-83
2023/02/06 07:20:01;;;;;;;39.75;8.27;;;5.20;99.90;;;;;;5074002;28;20162;-86
2023/02/06 07:22:27;;;;;;;47.75;6.80;;;5.20;99.90;;;;;;5069462;28;20289;-84
2023/02/06 07:24:52;;;;;;;40.28;6.53;;;5.20;99.90;;;;;;5070169;28;20169;-85
2023/02/06 07:27:18;;;;;;;50.75;7.32;;;5.00;99.90;;;;;;5071681;28;20195;-87
2023/02/06 07:29:44;;;;;;;41.60;7.45;;;4.90;99.90;;;;;;5072917;28;20591;-88
2023/02/06 07:32:10;;;;;;;57.53;7.68;;;4.70;99.90;;;;;;5071981;28;20195;-87
2023/02/06 07:34:35;;;;;;;38.60;7.30;;;4.80;99.90;;;;;;5071177;28;20627;-81
2023/02/06 07:37:02;;;;;;;22.98;5.75;;;5.00;99.90;;;;;;5071713;28;20615;-81
2023/02/06 07:39:28;;;;;;;36.90;8.35;;;5.00;99.90;;;;;;5070600;28;20611;-84
2023/02/06 07:41:53;;;;;;;39.38;8.00;;;5.00;99.90;;;;;;5070242;28;20274;-82
2023/02/06 07:44:19;;;;;;;32.20;7.50;;;5.20;99.90;;;;;;5066929;28;20638;-85
2023/02/06 07:46:45;;;;;;;44.03;7.68;;;5.40;99.90;;;;;;5071488;28;20212;-84
2023/02/06 07:49:13;;;;;;;26.83;7.63;;;5.60;99.90;;;;;;5071014;28;20201;-84
2023/02/06 07:51:40;;;;;;;50.42;9.35;;;5.60;99.90;;;;;;5071031;28;20217;-80
2023/02/06 07:54:05;;;;;;;37.80;7.95;;;5.60;99.90;;;;;;5070123;28;20170;-83
2023/02/06 07:56:31;;;;;;;60.20;9.40;;;5.60;99.90;;;;;;5066698;28;20219;-81
2023/02/06 07:58:56;;;;;;;40.00;8.48;;;5.70;99.90;;;;;;5069816;28;20562;-83
2023/02/06 08:01:22;;;;;;;37.85;8.25;;;5.80;99.90;;;;;;5071651;28;20212;-80
2023/02/06 08:03:49;;;;;;;54.70;8.82;;;5.90;99.90;;;;;;5070545;28;20904;-81
2023/02/06 08:06:15;;;;;;;42.30;9.35;;;5.90;99.90;;;;;;5066430;28;20168;-84
2023/02/06 08:08:43;;;;;;;35.97;8.50;;;6.00;99.90;;;;;;5050241;28;20177;-82
2023/02/06 08:11:11;;;;;;;39.60;10.25;;;5.90;99.90;;;;;;5053179;28;20198;-80
2023/02/06 08:13:37;;;;;;;47.53;9.35;;;5.70;99.90;;;;;;5068686;28;20694;-80
2023/02/06 08:16:24;;;;;;;55.08;10.73;;;5.80;99.90;;;;;;5068852;28;20248;-85
2023/02/06 08:18:50;;;;;;;68.43;10.27;;;5.60;99.90;;;;;;5069676;28;20178;-80
2023/02/06 08:21:19;;;;;;;54.85;11.35;;;5.70;99.90;;;;;;5070698;28;20188;-81
2023/02/06 08:23:46;;;;;;;44.35;10.27;;;5.90;99.90;;;;;;5070336;28;20258;-80
2023/02/06 08:26:17;;;;;;;51.78;11.93;;;5.80;99.90;;;;;;5070075;28;20198;-79
2023/02/06 08:28:45;;;;;;;47.20;12.82;;;5.60;99.90;;;;;;5065877;28;20180;-80
2023/02/06 08:31:17;;;;;;;57.78;10.65;;;5.40;99.90;;;;;;5069929;28;20240;-80
2023/02/06 08:33:43;;;;;;;84.97;12.15;;;5.50;99.90;;;;;;5071535;28;20312;-82
2023/02/06 08:36:10;;;;;;;40.40;10.85;;;5.40;99.90;;;;;;5071713;28;20202;-79
2023/02/06 08:38:36;;;;;;;54.65;14.07;;;5.50;99.90;;;;;;5073579;28;20164;-80
2023/02/06 08:41:01;;;;;;;42.45;10.43;;;5.70;99.90;;;;;;5075147;28;20273;-82
2023/02/06 08:43:27;;;;;;;68.22;10.57;;;5.80;99.90;;;;;;5073944;28;20177;-83
2023/02/06 08:46:01;;;;;;;59.58;11.55;;;5.90;99.90;;;;;;5073864;28;20171;-81
2023/02/06 08:48:27;;;;;;;45.50;10.88;;;5.90;99.90;;;;;;5077370;28;20169;-86
2023/02/06 08:51:08;;;;;;;59.92;11.05;;;6.00;99.90;;;;;;5085085;28;20682;-87
2023/02/06 08:53:34;;;;;;;40.40;10.18;;;6.10;99.90;;;;;;5081930;28;20206;-90
2023/02/06 08:56:03;;;;;;;58.63;11.35;;;6.10;99.90;;;;;;5075137;28;20163;-91
2023/02/06 08:58:28;;;;;;;48.55;10.93;;;6.20;99.90;;;;;;5076047;28;20173;-78
2023/02/06 09:00:54;;;;;;;66.18;10.70;;;6.40;99.90;;;;;;5073040;28;20281;-78
2023/02/06 09:03:21;;;;;;;27.85;9.32;;;6.40;99.90;;;;;;5075926;28;20167;-77
2023/02/06 09:05:47;;;;;;;38.40;8.88;;;6.30;99.90;;;;;;5074917;28;20175;-77
2023/02/06 09:08:13;;;;;;;34.35;9.38;;;6.40;99.90;;;;;;5075744;28;20595;-82
2023/02/06 09:10:39;;;;;;;59.38;8.20;;;6.40;99.90;;;;;;5075475;28;20190;-77
2023/02/06 09:13:04;;;;;;;28.42;8.20;;;6.40;99.90;;;;;;5075370;28;20293;-77
2023/02/06 09:15:30;;;;;;;14.45;7.18;;;6.60;99.90;;;;;;5074082;28;20175;-77
2023/02/06 09:17:55;;;;;;;20.20;7.43;;;6.30;99.90;;;;;;5075841;28;20249;-77
2023/02/06 09:20:21;;;;;;;31.92;7.93;;;6.20;99.90;;;;;;5075409;28;20194;-76
2023/02/06 09:22:47;;;;;;;36.75;8.23;;;6.20;99.90;;;;;;5075600;28;20170;-77
2023/02/06 09:25:12;;;;;;;26.55;7.25;;;6.40;99.90;;;;;;5075427;28;20173;-76
2023/02/06 09:27:38;;;;;;;28.92;8.23;;;6.50;99.90;;;;;;5075776;28;20178;-76
2023/02/06 09:30:04;;;;;;;16.02;6.32;;;6.70;99.90;;;;;;5075518;28;20229;-82
2023/02/06 09:32:29;;;;;;;26.65;7.10;;;6.60;99.90;;;;;;5075453;28;20693;-77
2023/02/06 09:34:55;;;;;;;26.23;7.88;;;6.60;99.90;;;;;;5074244;28;20170;-80
2023/02/06 09:37:22;;;;;;;36.03;8.73;;;6.70;99.90;;;;;;5074968;28;20498;-85
2023/02/06 09:39:47;;;;;;;28.05;7.03;;;6.90;99.90;;;;;;5075249;28;20182;-78
2023/02/06 09:42:28;;;;;;;41.80;9.45;;;7.00;99.90;;;;;;5062164;28;20651;-78
2023/02/06 09:45:12;;;;;;;35.78;9.15;;;7.10;99.90;;;;;;5055068;28;20632;-78
2023/02/06 09:48:19;;;;;;;45.97;8.70;;;7.10;99.90;;;;;;5054983;28;20627;-80
2023/02/06 09:51:01;;;;;;;43.72;9.85;;;6.80;99.90;;;;;;5078030;28;20182;-81
2023/02/06 09:53:46;;;;;;;29.80;9.65;;;6.80;99.90;;;;;;5096249;28;20221;-78
2023/02/06 09:56:16;;;;;;;25.92;10.00;;;6.80;99.90;;;;;;5074953;28;20166;-77
2023/02/06 09:58:58;;;;;;;31.55;9.98;;;6.90;99.90;;;;;;5074579;28;20182;-77
2023/02/06 10:01:32;;;;;;;32.72;10.15;;;6.70;99.90;;;;;;5074597;28;20191;-77
2023/02/06 10:04:03;;;;;;;29.40;8.57;;;6.70;99.90;;;;;;5078053;28;20225;-83
2023/02/06 10:06:40;;;;;;;22.73;9.40;;;6.70;99.90;;;;;;5074434;28;20201;-81
2023/02/06 10:09:18;;;;;;;24.10;8.70;;;6.80;99.90;;;;;;5076650;28;20170;-87
2023/02/06 10:11:53;;;;;;;34.13;10.90;;;6.70;99.90;;;;;;5077213;28;20202;-87
2023/02/06 10:14:39;;;;;;;28.20;10.43;;;7.00;99.90;;;;;;5078570;28;20228;-87
2023/02/06 10:17:34;;;;;;;37.72;11.38;;;7.20;99.90;;;;;;5074909;28;20631;-78
2023/02/06 10:20:10;;;;;;;40.90;11.10;;;7.40;99.90;;;;;;5076225;28;20836;-77
2023/02/06 10:22:41;;;;;;;29.70;11.00;;;7.20;99.90;;;;;;5074845;28;20192;-77
2023/02/06 10:25:10;;;;;;;47.85;10.15;;;7.10;99.90;;;;;;5075350;28;20206;-78
2023/02/06 10:27:39;;;;;;;36.45;13.15;;;7.40;99.90;;;;;;5074770;28;20285;-78
2023/02/06 10:30:05;;;;;;;28.45;10.07;;;7.40;99.90;;;;;;5074647;28;20300;-78
2023/02/06 10:32:55;;;;;;;34.88;10.63;;;7.40;99.90;;;;;;5076692;28;20202;-78
2023/02/06 10:36:02;;;;;;;30.02;9.52;;;7.50;99.90;;;;;;5073693;28;20159;-78
2023/02/06 10:38:33;;;;;;;33.28;10.00;;;7.60;99.90;;;;;;5051935;28;20208;-78
2023/02/06 10:41:02;;;;;;;37.40;9.85;;;7.80;99.90;;;;;;5074944;28;20217;-78
2023/02/06 10:43:51;;;;;;;29.58;9.05;;;7.60;99.90;;;;;;5073622;28;20170;-88
2023/02/06 10:46:35;;;;;;;26.77;9.07;;;7.80;99.90;;;;;;5066654;28;20174;-83
2023/02/06 10:49:10;;;;;;;39.63;8.75;;;7.70;99.90;;;;;;5053973;28;20175;-85
2023/02/06 10:51:42;;;;;;;39.53;9.50;;;7.70;99.90;;;;;;5055828;28;20178;-80
2023/02/06 10:54:19;;;;;;;28.45;8.57;;;7.90;99.90;;;;;;5069934;28;20596;-80
2023/02/06 10:56:48;;;;;;;20.83;9.32;;;8.30;99.90;;;;;;5066615;28;20174;-80
2023/02/06 10:59:37;;;;;;;29.40;9.50;;;8.30;99.90;;;;;;5077054;28;20171;-83
2023/02/06 11:02:32;;;;;;;24.63;8.55;;;8.00;99.90;;;;;;5071903;28;20187;-80
2023/02/06 11:05:09;;;;;;;31.90;8.80;;;7.80;99.90;;;;;;5073404;28;20265;-84
2023/02/06 11:07:39;;;;;;;36.47;9.88;;;7.90;99.90;;;;;;5073499;28;20534;-84
2023/02/06 11:10:06;;;;;;;26.90;9.57;;;8.10;99.90;;;;;;5075017;28;20159;-84
2023/02/06 11:12:37;;;;;;;34.65;8.88;;;8.40;99.90;;;;;;5072658;28;20210;-84
2023/02/06 11:15:16;;;;;;;30.60;9.20;;;8.20;99.90;;;;;;5074606;28;20176;-84
2023/02/06 11:17:43;;;;;;;39.05;10.38;;;8.20;99.90;;;;;;5055707;28;20498;-86
2023/02/06 11:20:32;;;;;;;27.83;10.23;;;8.30;99.90;;;;;;5055761;28;20221;-81
2023/02/06 11:23:17;;;;;;;32.10;9.52;;;8.40;99.90;;;;;;5055661;28;20175;-79
2023/02/06 11:25:44;;;;;;;29.13;9.20;;;8.60;99.90;;;;;;5054698;28;20531;-78
2023/02/06 11:28:17;;;;;;;31.77;9.07;;;8.70;99.90;;;;;;5052891;28;20751;-85
2023/02/06 11:30:56;;;;;;;21.95;7.75;;;8.40;99.90;;;;;;5052125;28;20190;-79
2023/02/06 11:33:44;;;;;;;29.67;9.40;;;8.20;99.90;;;;;;5071052;28;20205;-86
2023/02/06 11:36:31;;;;;;;27.60;10.80;;;7.90;99.90;;;;;;5074223;28;20166;-79
2023/02/06 11:39:03;;;;;;;35.92;11.82;;;8.10;99.90;;;;;;5076384;28;20237;-84
2023/02/06 11:41:30;;;;;;;37.92;12.80;;;8.10;99.90;;;;;;5077476;28;20210;-87
2023/02/06 11:44:01;;;;;;;31.08;10.35;;;8.20;99.90;;;;;;5077035;28;20649;-86
2023/02/06 11:46:39;;;;;;;40.28;11.65;;;8.10;99.90;;;;;;5075462;28;20173;-86
2023/02/06 11:49:25;;;;;;;50.05;12.70;;;8.20;99.90;;;;;;5073059;28;20178;-80
2023/02/06 11:51:55;;;;;;;47.50;13.95;;;8.50;99.90;;;;;;5074862;28;20194;-82
2023/02/06 11:54:27;;;;;;;35.53;12.18;;;8.50;99.90;;;;;;5072083;28;20587;-81
2023/02/06 11:57:17;;;;;;;35.67;10.98;;;8.40;99.90;;;;;;5074274;28;20190;-87
2023/02/06 11:59:53;;;;;;;25.02;11.55;;;8.10;99.90;;;;;;5075103;28;20175;-79
2023/02/06 12:02:31;;;;;;;55.00;11.27;;;8.00;99.90;;;;;;5072572;28;20190;-86
2023/02/06 12:05:15;;;;;;;47.08;11.15;;;7.80;99.90;;;;;;5072722;28;20186;-80
2023/02/06 12:07:48;;;;;;;42.35;10.13;;;7.90;99.90;;;;;;5072286;28;20499;-79
2023/02/06 12:10:16;;;;;;;31.75;10.85;;;8.00;99.90;;;;;;5074226;28;20162;-79
2023/02/06 12:12:48;;;;;;;51.67;12.93;;;7.90;99.90;;;;;;5071707;28;20377;-80
2023/02/06 12:15:20;;;;;;;32.03;11.18;;;8.00;99.90;;;;;;5073995;28;20166;-85
2023/02/06 12:18:02;;;;;;;28.23;10.30;;;7.80;99.90;;;;;;5074517;28;20700;-85
2023/02/06 12:20:31;;;;;;;19.80;8.48;;;7.90;99.90;;;;;;5073928;28;20175;-86
2023/02/06 12:23:22;;;;;;;41.90;10.70;;;8.00;99.90;;;;;;5072670;28;20178;-83
2023/02/06 12:26:13;;;;;;;32.05;8.95;;;8.20;99.90;;;;;;5074484;28;20178;-87
2023/02/06 12:29:00;;;;;;;32.45;8.73;;;8.10;99.90;;;;;;5073926;28;20178;-88
2023/02/06 12:31:49;;;;;;;38.10;8.98;;;7.90;99.90;;;;;;5073933;28;20197;-87
2023/02/06 12:34:48;;;;;;;27.85;9.15;;;8.00;99.90;;;;;;5075352;28;20201;-88
2023/02/06 12:37:31;;;;;;;35.67;6.38;;;7.90;99.90;;;;;;5073747;28;20264;-86
2023/02/06 12:39:59;;;;;;;41.53;6.18;;;7.90;99.90;;;;;;5074158;28;20177;-87
2023/02/06 12:42:28;;;;;;;29.50;6.63;;;8.00;99.90;;;;;;5073078;28;20195;-85
2023/02/06 12:44:56;;;;;;;30.00;6.93;;;7.90;99.90;;;;;;5072043;28;20534;-87
2023/02/06 12:47:34;;;;;;;25.08;6.05;;;7.70;99.90;;;;;;5078172;28;20170;-87
2023/02/06 12:50:03;;;;;;;20.63;4.82;;;8.10;99.90;;;;;;5075268;28;20530;-87
2023/02/06 12:52:46;;;;;;;31.63;6.00;;;8.00;99.90;;;;;;5076145;28;20301;-88
2023/02/06 12:55:32;;;;;;;37.35;5.72;;;8.20;99.90;;;;;;5079845;28;20178;-82
2023/02/06 12:57:58;;;;;;;25.95;4.45;;;8.20;99.90;;;;;;5072552;28;20174;-78
2023/02/06 13:00:51;;;;;;;21.80;5.28;;;8.30;99.90;;;;;;5077327;28;20162;-82